Latest Weather Observations for Port Pirie Airport AWS

IDS60801

Issued at 9:21 pm CDT Thursday 17 January 2019 (issued every 10 minutes, with the page automatically refreshed every 10 minutes)

About weather observations | Map of weather stations | Latest weather observations for SA | Other Formats
Station Details ID: 021139 Name: PORT PIRIE AERODROME AWS Lat: -33.24 Lon: 138.00 Height: 12.0 m
Data from the previous 72 hours. | See also: Recent months for locations in South Australia
Date/Time
CDT
Temp
°C
App
Temp
°C
Dew
Point
°C
Rel
Hum
%
Delta-T
°C
Wind Press
QNH
hPa
Press
MSL
hPa
Rain since
9am
mm
Dir  Spd
km/h
Gust
km/h
Spd
kts
Gust
kts
17/09:00pm 30.8 26.5 13.1 34 10.6 SE 28 39 15 21 1006.8 1006.8 0.0
17/08:30pm 31.5 26.3 12.8 32 11.1 SE 32 43 17 23 1006.7 1006.7 0.0
17/08:00pm 32.0 26.9 13.2 31 11.3 SE 32 39 17 21 1006.2 1006.2 0.0
17/07:30pm 33.3 27.0 13.4 30 12.1 SSE 39 50 21 27 1006.0 1006.0 0.0
17/07:00pm 34.1 27.2 14.1 30 12.3 S 43 52 23 28 1005.5 1005.5 0.0
17/06:58pm 34.5 26.8 12.2 26 13.3 S 44 57 24 31 1005.4 1005.4 0.0
17/06:30pm 34.1 27.2 14.6 31 12.1 SSW 44 56 24 30 1005.1 1005.1 0.0
17/06:00pm 35.6 27.1 13.1 25 13.7 SSW 50 61 27 33 1004.2 1004.2 0.0
17/05:30pm 34.7 26.9 14.0 28 12.7 SSW 48 63 26 34 1003.8 1003.8 0.0
17/05:00pm 33.6 25.8 15.1 33 11.5 SSW 50 63 27 34 1003.7 1003.7 0.0
17/04:30pm 34.4 27.4 15.3 31 12.0 SSW 46 59 25 32 1003.7 1003.7 0.0
17/04:00pm 35.4 29.5 16.7 33 11.9 SW 43 59 23 32 1003.8 1003.8 0.0
17/03:52pm 38.8 34.2 14.6 24 15.2 WSW 32 56 17 30 1003.6 1003.6 0.0
17/03:30pm 42.7 38.1 9.5 14 19.7 W 24 32 13 17 1003.6 1003.6 0.0
17/03:00pm 41.1 35.9 10.3 16 18.4 WNW 28 35 15 19 1003.9 1003.9 0.0
17/02:30pm 42.6 37.6 9.5 14 19.7 NNW 26 32 14 17 1004.0 1004.0 0.0
17/02:00pm 43.2 37.6 8.8 13 20.2 NNW 28 35 15 19 1004.2 1004.2 0.0
17/01:30pm 42.5 37.2 8.3 13 20.0 NNW 26 32 14 17 1004.5 1004.5 0.0
17/01:00pm 42.1 37.5 8.0 13 19.7 NNW 22 30 12 16 1004.7 1004.7 0.0
17/12:30pm 42.4 38.2 8.2 13 19.9 NNW 20 32 11 17 1004.9 1004.9 0.0
17/12:00pm 42.2 37.7 6.9 12 20.2 NNW 20 30 11 16 1005.2 1005.2 0.0
17/11:30am 43.2 38.1 7.7 12 20.6 N 24 41 13 22 1005.1 1005.1 0.0
17/11:00am 42.5 38.0 7.1 12 20.3 NE 20 30 11 16 1005.3 1005.3 0.0
17/10:30am 40.9 36.9 8.1 14 19.0 ESE 19 28 10 15 1005.5 1005.5 0.0
17/10:00am 39.4 34.0 8.0 15 18.0 ESE 26 33 14 18 1005.9 1005.9 0.0
17/09:30am 36.7 30.8 7.7 17 16.4 ESE 28 35 15 19 1006.2 1006.2 0.0
17/09:00am 34.6 27.9 11.1 24 13.8 SE 37 44 20 24 1006.3 1006.3 0.0
17/08:30am 30.4 24.7 11.9 32 10.8 SE 33 41 18 22 1006.7 1006.7 0.0
17/08:00am 28.5 21.8 12.4 37 9.4 SE 39 46 21 25 1007.0 1007.0 0.0
17/07:30am 27.6 22.5 13.2 41 8.5 SE 32 39 17 21 1006.9 1006.9 0.0
17/07:00am 26.0 22.5 14.5 49 6.9 SSE 26 30 14 16 1007.4 1007.4 0.0
17/06:30am 26.0 21.6 14.1 47 7.1 SE 30 35 16 19 1007.2 1007.2 0.0
17/06:00am 26.1 21.4 14.2 48 7.1 SE 32 39 17 21 1006.7 1006.7 0.0
17/05:30am 26.9 22.6 13.3 43 8.0 SE 28 33 15 18 1007.0 1007.0 0.0
17/05:00am 26.8 22.1 14.2 46 7.5 SE 32 43 17 23 1007.1 1007.1 0.0
17/04:49am 27.2 23.0 14.6 46 7.6 SE 30 39 16 21 1007.1 1007.1 0.0
17/04:30am 26.7 25.3 14.5 47 7.3 SSE 15 20 8 11 1007.2 1007.2 0.0
17/04:00am 26.1 25.6 15.8 53 6.3 S 13 17 7 9 1007.5 1007.5 0.0
17/03:30am 25.7 22.1 17.6 61 5.1 SSW 33 41 18 22 1007.2 1007.2 0.0
17/03:00am 25.6 21.2 18.5 65 4.5 SSW 39 46 21 25 1006.5 1006.5 0.0
17/02:30am 27.5 25.2 17.7 55 6.2 SSW 26 37 14 20 1006.5 1006.5 0.0
17/02:12am 28.8 27.5 15.7 45 8.1 SE 17 44 9 24 1006.8 1006.8 0.0
17/02:00am 29.1 27.7 15.6 44 8.3 ESE 17 20 9 11 1006.3 1006.3 0.0
17/01:30am 28.8 27.7 16.4 47 7.7 SSW 17 20 9 11 1006.7 1006.7 0.0
17/01:00am 30.6 27.9 13.0 34 10.5 SSE 19 24 10 13 1006.4 1006.4 0.0
17/12:30am 31.0 28.1 12.8 32 10.8 S 20 24 11 13 1006.5 1006.5 0.0
17/12:00am 30.4 28.0 14.5 38 9.7 S 20 24 11 13 1006.6 1006.6 0.0
 
Date/Time
CDT
Temp
°C
App
Temp
°C
Dew
Point
°C
Rel
Hum
%
Delta-T
°C
Wind Press
QNH
hPa
Press
MSL
hPa
Rain since
9am
mm
Dir  Spd
km/h
Gust
km/h
Spd
kts
Gust
kts
16/11:30pm 27.5 26.5 18.8 59 5.6 S 22 28 12 15 1006.6 1006.6 0.0
16/11:00pm 27.7 26.8 18.1 56 6.1 SSW 20 28 11 15 1007.2 1007.2 0.0
16/10:30pm 28.2 25.8 17.4 52 6.8 S 26 30 14 16 1006.9 1006.9 0.0
16/10:00pm 29.3 27.2 16.1 44 8.2 SSW 22 30 12 16 1006.6 1006.6 0.0
16/09:30pm 29.3 26.6 16.5 46 8.0 SSW 26 32 14 17 1006.6 1006.6 0.0
16/09:00pm 30.7 26.8 15.5 39 9.4 SW 30 41 16 22 1006.7 1006.7 0.0
16/08:51pm 32.5 30.0 14.1 32 11.2 SSW 20 39 11 21 1006.6 1006.6 0.0
16/08:30pm 35.7 33.1 9.3 20 15.2 ESE 13 15 7 8 1006.2 1006.2 0.0
16/08:00pm 37.9 35.0 9.5 18 16.5 E 15 17 8 9 1005.7 1005.7 0.0
16/07:30pm 39.0 36.1 9.5 17 17.3 ESE 15 19 8 10 1005.2 1005.2 0.0
16/07:00pm 38.8 35.7 10.2 18 16.9 SE 17 20 9 11 1004.8 1004.8 0.0
16/06:30pm 39.2 35.1 11.3 19 16.8 SSE 24 28 13 15 1004.5 1004.5 0.0
16/06:00pm 39.9 37.7 13.4 21 16.5 SE 17 20 9 11 1004.4 1004.4 0.0
16/05:30pm 38.9 37.7 14.0 23 15.5 ESE 13 15 7 8 1004.5 1004.5 0.0
16/05:00pm 38.4 38.0 14.2 23 15.1 SE 9 13 5 7 1004.9 1004.9 0.0
16/04:30pm 37.3 37.3 15.2 27 13.9 S 9 11 5 6 1005.3 1005.3 0.0
16/04:00pm 37.8 36.5 12.4 22 15.4 WSW 11 13 6 7 1005.6 1005.6 0.0
16/03:30pm 37.7 35.2 12.3 22 15.4 WNW 17 20 9 11 1005.6 1005.6 0.0
16/03:00pm 40.5 37.4 11.6 18 17.5 NNW 19 26 10 14 1005.7 1005.7 0.0
16/02:30pm 40.0 38.8 12.8 20 16.7 WNW 11 19 6 10 1006.0 1006.0 0.0
16/02:00pm 38.5 36.8 12.3 21 15.9 NW 13 20 7 11 1006.5 1006.5 0.0
16/01:30pm 37.2 35.6 13.9 25 14.4 N 15 22 8 12 1007.0 1007.0 0.0
16/01:00pm 36.1 37.3 15.8 30 12.8 W 4 7 2 4 1007.6 1007.6 0.0
16/12:30pm 33.4 33.8 15.4 34 11.2 WNW 7 15 4 8 1008.2 1008.2 0.0
16/12:00pm 32.4 32.3 15.0 35 10.8 N 9 13 5 7 1008.3 1008.3 0.0
16/11:30am 29.9 28.8 16.3 43 8.5 NE 17 22 9 12 1008.4 1008.4 0.0
16/11:00am 28.9 29.7 17.4 49 7.3 ENE 9 13 5 7 1008.7 1008.7 0.0
16/10:30am 26.6 27.4 18.2 60 5.3 S 11 15 6 8 1009.2 1009.2 0.0
16/10:00am 26.5 24.8 17.3 57 5.8 WSW 22 28 12 15 1009.3 1009.3 0.0
16/09:30am 27.8 29.5 16.1 49 7.2 SSE 2 9 1 5 1008.8 1008.8 0.0
16/09:00am 27.4 27.5 16.4 51 6.8 SW 11 15 6 8 1008.5 1008.5 0.0
16/08:30am 26.8 26.5 16.4 53 6.4 WSW 13 19 7 10 1008.1 1008.1 0.0
16/08:00am 25.5 26.4 16.6 58 5.5 SSW 7 9 4 5 1007.9 1007.9 0.0
16/07:30am 24.1 25.3 17.4 66 4.2 S 7 11 4 6 1007.6 1007.6 0.0
16/07:00am 22.7 23.5 16.3 67 3.9 SE 7 11 4 6 1007.2 1007.2 0.0
16/06:30am 21.6 21.0 14.7 65 4.1 SSW 11 13 6 7 1007.0 1007.0 0.0
16/06:00am 21.5 19.0 13.4 60 4.7 SW 19 24 10 13 1006.9 1006.9 0.0
16/05:30am 21.7 19.5 13.3 59 4.8 SSW 17 22 9 12 1006.3 1006.3 0.0
16/05:00am 22.1 20.4 13.5 58 5.0 ESE 15 17 8 9 1006.0 1006.0 0.0
16/04:30am 22.1 19.9 13.2 57 5.1 ESE 17 19 9 10 1006.0 1006.0 0.0
16/04:00am 22.8 21.3 14.1 58 5.1 SE 15 17 8 9 1006.6 1006.6 0.0
16/03:30am 23.1 22.0 14.4 58 5.1 SE 13 19 7 10 1007.3 1007.3 0.0
16/03:00am 23.7 22.1 13.8 53 5.8 SSW 15 19 8 10 1007.1 1007.1 0.0
16/02:30am 24.6 22.6 13.8 51 6.4 SE 17 20 9 11 1007.3 1007.3 0.0
16/02:00am 25.7 23.4 14.2 49 6.8 SE 19 24 10 13 1007.3 1007.3 0.0
16/01:30am 26.2 23.1 10.4 37 8.8 SSE 17 22 9 12 1007.7 1007.7 0.0
16/01:00am 25.8 24.6 16.1 55 5.9 SSW 17 22 9 12 1007.8 1007.8 0.0
16/12:30am 25.7 24.4 16.8 58 5.5 SW 19 22 10 12 1008.0 1008.0 0.0
16/12:00am 27.0 24.2 16.3 52 6.6 SSW 26 32 14 17 1008.1 1008.1 0.0
 
Date/Time
CDT
Temp
°C
App
Temp
°C
Dew
Point
°C
Rel
Hum
%
Delta-T
°C
Wind Press
QNH
hPa
Press
MSL
hPa
Rain since
9am
mm
Dir  Spd
km/h
Gust
km/h
Spd
kts
Gust
kts
15/11:30pm 27.8 24.2 10.5 34 9.8 SW 20 24 11 13 1008.2 1008.2 0.0
15/11:00pm 28.4 25.4 4.0 21 12.4 S 9 17 5 9 1008.2 1008.2 0.0
15/10:30pm 28.6 24.0 3.5 20 12.6 SSE 17 19 9 10 1007.6 1007.6 0.0
15/10:00pm 30.5 26.4 4.3 19 13.5 SSE 15 17 8 9 1007.3 1007.3 0.0
15/09:30pm 32.6 28.0 3.5 16 15.0 SE 17 19 9 10 1006.9 1006.9 0.0
15/09:00pm 34.3 29.4 4.0 15 15.9 SSE 19 20 10 11 1006.9 1006.9 0.0
15/08:30pm 37.1 31.6 4.1 13 17.6 SSE 22 26 12 14 1006.7 1006.7 0.0
15/08:00pm 38.9 35.1 7.6 15 17.8 SSE 17 26 9 14 1006.4 1006.4 0.0
15/07:30pm 38.6 36.0 13.1 22 15.7 S 19 22 10 12 1006.5 1006.5 0.0
15/07:00pm 38.7 34.8 10.9 19 16.5 S 22 26 12 14 1006.3 1006.3 0.0
15/06:30pm 38.9 34.6 11.9 20 16.4 SSW 26 30 14 16 1006.0 1006.0 0.0
15/06:00pm 39.5 35.7 12.4 20 16.6 SSW 24 33 13 18 1006.3 1006.3 0.0
15/05:30pm 39.4 37.3 16.3 25 14.9 S 22 32 12 17 1006.2 1006.2 0.0
15/05:00pm 43.8 38.3 0.4 7 22.7 SSE 19 32 10 17 1006.2 1006.2 0.0
15/04:30pm 43.9 37.6 -4.0 5 23.6 S 20 28 11 15 1006.6 1006.6 0.0
15/04:00pm 43.3 37.3 5.1 10 21.3 S 26 37 14 20 1007.0 1007.0 0.0
15/03:30pm 40.4 35.3 7.8 14 18.7 SSW 24 30 13 16 1007.5 1007.5 0.0
15/03:00pm 38.8 33.8 9.4 17 17.2 SSW 26 35 14 19 1007.7 1007.7 0.0
15/02:30pm 38.2 32.1 9.7 18 16.7 SW 32 44 17 24 1007.7 1007.7 0.0
15/02:13pm 39.2 35.6 10.5 18 17.0 W 20 46 11 25 1007.7 1007.7 0.0
15/02:00pm 41.5 37.8 6.4 12 19.8 WNW 15 20 8 11 1007.6 1007.6 0.0
15/01:30pm 40.6 36.5 7.9 14 18.8 NNW 19 24 10 13 1007.8 1007.8 0.0
15/01:00pm 39.9 35.3 6.3 13 18.8 NNW 20 26 11 14 1008.0 1008.0 0.0
15/12:30pm 40.6 36.5 7.9 14 18.8 NNW 19 24 10 13 1008.3 1008.3 0.0
15/12:00pm 39.3 35.2 7.9 15 18.0 NNW 19 22 10 12 1008.3 1008.3 0.0
15/11:30am 38.1 35.1 7.9 16 17.2 NNW 13 24 7 13 1008.4 1008.4 0.0
15/11:00am 37.8 35.0 8.6 17 16.7 NW 13 19 7 10 1008.5 1008.5 0.0
15/10:30am 36.0 33.8 9.5 20 15.3 NNW 11 19 6 10 1008.6 1008.6 0.0
15/10:00am 34.2 33.7 12.5 27 13.0 W 7 17 4 9 1008.4 1008.4 0.0
15/09:30am 32.8 30.3 8.3 22 13.7 WNW 11 13 6 7 1008.7 1008.7 0.0
15/09:00am 31.7 30.4 6.0 20 13.8 ESE 2 6 1 3 1008.6 1008.6 0.0
15/08:30am 29.3 26.8 4.0 20 12.9 E 6 7 3 4 1008.7 1008.7 0.0
15/08:00am 27.7 24.9 8.6 30 10.4 S 13 17 7 9 1008.4 1008.4 0.0
15/07:30am 25.6 21.7 5.2 27 10.4 SSW 15 19 8 10 1008.2 1008.2 0.0
15/07:00am 22.2 18.2 4.7 32 8.6 SW 15 20 8 11 1008.0 1008.0 0.0
15/06:30am 21.0 17.5 3.7 32 8.3 SSW 11 15 6 8 1007.6 1007.6 0.0
15/06:00am 22.6 20.3 4.6 31 8.9 WNW 6 9 3 5 1007.4 1007.4 0.0
15/05:30am 22.8 19.9 4.8 31 8.9 W 9 13 5 7 1007.3 1007.3 0.0
15/05:00am 24.5 19.5 3.8 26 10.2 ENE 19 20 10 11 1006.8 1006.8 0.0
15/04:30am 25.1 20.3 4.8 27 10.2 SE 19 20 10 11 1007.0 1007.0 0.0
15/04:00am 25.5 20.3 5.7 28 10.1 SE 22 24 12 13 1007.2 1007.2 0.0
15/03:30am 23.9 19.3 5.8 31 9.2 SSE 19 22 10 12 1007.5 1007.5 0.0
15/03:00am 23.9 19.1 4.8 29 9.6 SSE 19 24 10 13 1007.8 1007.8 0.0
15/02:30am 24.4 19.3 4.2 27 10.0 SSE 20 22 11 12 1007.9 1007.9 0.0
15/02:00am 24.6 20.0 3.8 26 10.2 SSE 17 19 9 10 1008.1 1008.1 0.0
15/01:30am 24.8 20.4 4.5 27 10.2 S 17 20 9 11 1008.3 1008.3 0.0
15/01:00am 26.0 22.3 4.5 25 10.8 SSW 13 17 7 9 1008.8 1008.8 0.0
15/12:30am 27.4 23.0 4.5 23 11.6 SE 17 20 9 11 1008.7 1008.7 0.0
15/12:00am 27.0 23.4 2.8 21 11.9 SSE 11 15 6 8 1008.7 1008.7 0.0
 
Date/Time
CDT
Temp
°C
App
Temp
°C
Dew
Point
°C
Rel
Hum
%
Delta-T
°C
Wind Press
QNH
hPa
Press
MSL
hPa
Rain since
9am
mm
Dir  Spd
km/h
Gust
km/h
Spd
kts
Gust
kts
14/11:30pm 28.7 25.1 2.8 19 12.9 SSE 11 15 6 8 1008.7 1008.7 0.0
14/11:00pm 29.2 24.8 2.5 18 13.2 SSE 15 17 8 9 1008.8 1008.8 0.0
14/10:30pm 30.9 25.9 1.3 15 14.6 SE 17 24 9 13 1008.6 1008.6 0.0
14/10:00pm 31.4 26.1 1.7 15 14.7 SSE 19 24 10 13 1008.7 1008.7 0.0
14/09:30pm 32.7 27.2 1.7 14 15.5 SSE 20 24 11 13 1008.1 1008.1 0.0

Other Formats:

Comma delimited format used in spreadsheet applications
http://www.bom.gov.au/fwo/IDS60801/IDS60801.99749.axf

JavaScript Object Notation format (JSON) in row-major order
http://www.bom.gov.au/fwo/IDS60801/IDS60801.99749.json